Time;durP1;ratioP1;P1;durP2;ratioP2;P2;SDS_P1;SDS_P2;PMS_P1;PMS_P2;Temp;Humidity;BMP_temperature;BMP_pressure;BME280_temperature;BME280_humidity;BME280_pressure;Samples;Min_cycle;Max_cycle;Signal;HPM_P1;HPM_P2
2023/04/30 00:02:17;;;;;;;15.90;7.55;;;16.00;91.40;;;;;;6125554;23;20433;-68
2023/04/30 00:04:43;;;;;;;12.63;7.78;;;16.00;91.30;;;;;;6125516;23;20078;-67
2023/04/30 00:07:08;;;;;;;11.82;7.28;;;16.00;91.30;;;;;;6125150;23;20077;-67
2023/04/30 00:09:34;;;;;;;12.05;7.07;;;16.00;91.40;;;;;;6125472;23;19999;-67
2023/04/30 00:12:00;;;;;;;14.32;8.23;;;15.90;91.50;;;;;;6127663;23;20006;-67
2023/04/30 00:14:26;;;;;;;9.75;6.90;;;15.90;91.60;;;;;;6127320;23;19998;-67
2023/04/30 00:16:51;;;;;;;13.07;7.18;;;15.90;91.80;;;;;;6101040;23;20010;-67
2023/04/30 00:19:17;;;;;;;13.32;7.93;;;15.90;91.90;;;;;;6127002;23;20021;-67
2023/04/30 00:21:43;;;;;;;12.35;7.57;;;15.90;92.10;;;;;;6127165;23;20029;-67
2023/04/30 00:24:08;;;;;;;12.43;7.15;;;15.90;92.20;;;;;;6127505;23;20001;-68
2023/04/30 00:26:34;;;;;;;11.73;6.90;;;15.80;92.20;;;;;;6127036;23;20075;-67
2023/04/30 00:29:00;;;;;;;12.18;7.45;;;15.80;92.20;;;;;;6127232;23;20025;-67
2023/04/30 00:31:25;;;;;;;11.70;7.32;;;15.90;92.10;;;;;;6126932;23;20335;-67
2023/04/30 00:33:51;;;;;;;11.77;7.47;;;15.80;92.10;;;;;;6126993;23;20069;-67
2023/04/30 00:36:17;;;;;;;13.80;7.13;;;15.80;92.20;;;;;;6127000;23;20053;-68
2023/04/30 00:38:42;;;;;;;12.18;7.57;;;15.80;92.20;;;;;;6127042;23;20024;-67
2023/04/30 00:41:09;;;;;;;10.25;6.97;;;15.90;92.20;;;;;;6127238;23;20009;-68
2023/04/30 00:43:34;;;;;;;11.32;6.80;;;15.80;92.30;;;;;;6127119;23;19998;-67
2023/04/30 00:46:02;;;;;;;13.07;7.00;;;15.80;92.50;;;;;;6126608;23;20002;-68
2023/04/30 00:48:28;;;;;;;13.07;7.07;;;15.80;92.40;;;;;;6126967;23;20005;-67
2023/04/30 00:50:54;;;;;;;10.18;6.18;;;15.90;92.70;;;;;;6126657;23;20025;-67
2023/04/30 00:53:19;;;;;;;9.23;6.32;;;15.90;92.60;;;;;;6126689;23;20013;-67
2023/04/30 00:55:45;;;;;;;10.48;6.20;;;15.90;92.70;;;;;;6126702;23;20076;-67
2023/04/30 00:58:11;;;;;;;10.60;5.63;;;15.90;92.60;;;;;;6124954;23;20001;-67
2023/04/30 01:00:37;;;;;;;7.68;5.05;;;15.80;92.60;;;;;;6123288;23;20018;-67
2023/04/30 01:03:03;;;;;;;8.75;5.20;;;15.80;92.60;;;;;;6123374;23;20013;-67
2023/04/30 01:05:29;;;;;;;8.25;4.80;;;15.90;92.70;;;;;;6125589;23;20002;-67
2023/04/30 01:07:56;;;;;;;19.20;5.40;;;15.90;92.80;;;;;;6126784;23;20009;-67
2023/04/30 01:10:41;;;;;;;10.52;5.65;;;15.90;92.80;;;;;;6126386;23;20034;-67
2023/04/30 01:13:22;;;;;;;10.43;4.80;;;15.90;92.70;;;;;;6126180;23;20009;-67
2023/04/30 01:16:01;;;;;;;12.07;6.72;;;15.80;92.50;;;;;;6126498;23;20030;-67
2023/04/30 01:18:34;;;;;;;10.30;6.60;;;15.80;92.30;;;;;;6126545;23;20006;-68
2023/04/30 01:21:06;;;;;;;;;;;15.80;92.30;;;;;;6127001;23;20383;-67
2023/04/30 01:23:50;;;;;;;10.18;7.47;;;15.80;92.50;;;;;;6126573;23;19908;-67
2023/04/30 01:26:45;;;;;;;11.80;6.95;;;15.80;92.30;;;;;;6126482;23;20068;-67
2023/04/30 01:29:13;;;;;;;10.20;6.88;;;15.70;92.60;;;;;;6126238;23;20038;-67
2023/04/30 01:31:43;;;;;;;14.25;7.70;;;15.70;92.90;;;;;;6126654;23;20040;-67
2023/04/30 01:34:08;;;;;;;11.45;7.22;;;15.70;93.10;;;;;;6126562;23;20052;-67
2023/04/30 01:36:57;;;;;;;10.23;7.72;;;15.60;93.10;;;;;;6126302;23;20424;-67
2023/04/30 01:39:42;;;;;;;10.30;7.50;;;15.70;93.20;;;;;;6126192;23;20084;-67
2023/04/30 01:42:44;;;;;;;9.18;7.15;;;15.70;93.20;;;;;;6126135;23;20006;-67
2023/04/30 01:45:47;;;;;;;14.48;7.57;;;15.60;93.10;;;;;;6118032;23;20010;-67
2023/04/30 01:48:49;;;;;;;15.75;8.95;;;15.60;92.80;;;;;;6126817;23;20053;-67
2023/04/30 01:51:22;;;;;;;10.77;7.65;;;15.60;92.70;;;;;;6090167;23;20025;-67
2023/04/30 01:53:48;;;;;;;9.98;7.72;;;15.60;92.90;;;;;;6126430;23;20002;-66
2023/04/30 01:56:37;;;;;;;9.90;7.70;;;15.60;93.10;;;;;;6126231;23;20005;-67
2023/04/30 01:59:04;;;;;;;12.93;7.55;;;15.60;93.00;;;;;;6116647;23;20348;-68
2023/04/30 02:01:31;;;;;;;10.77;7.53;;;15.60;93.20;;;;;;6126166;23;20032;-68
2023/04/30 02:03:58;;;;;;;14.73;7.32;;;15.60;93.50;;;;;;6126197;23;20002;-67
2023/04/30 02:06:28;;;;;;;11.75;7.55;;;15.60;93.40;;;;;;6126057;23;20458;-67
2023/04/30 02:09:04;;;;;;;14.43;7.88;;;15.50;93.30;;;;;;6126028;23;20002;-67
2023/04/30 02:11:29;;;;;;;11.43;7.80;;;15.50;93.10;;;;;;6126058;23;20435;-67
2023/04/30 02:13:55;;;;;;;9.55;7.50;;;15.50;93.20;;;;;;6125867;23;20049;-67
2023/04/30 02:16:21;;;;;;;10.55;7.90;;;15.50;93.20;;;;;;6125790;23;20073;-67
2023/04/30 02:18:47;;;;;;;10.40;6.72;;;15.50;93.20;;;;;;6125726;23;20056;-67
2023/04/30 02:21:13;;;;;;;16.02;7.47;;;15.50;93.30;;;;;;6126103;23;20359;-67
2023/04/30 02:23:39;;;;;;;12.20;6.90;;;15.50;93.30;;;;;;6125947;23;20038;-67
2023/04/30 02:26:05;;;;;;;11.95;7.07;;;15.50;93.50;;;;;;6126076;23;20040;-68
2023/04/30 02:28:30;;;;;;;11.90;6.72;;;15.50;93.60;;;;;;6126048;23;19998;-67
2023/04/30 02:30:56;;;;;;;13.23;7.20;;;15.50;93.50;;;;;;6126261;23;20065;-67
2023/04/30 02:33:22;;;;;;;10.95;6.28;;;15.50;93.50;;;;;;6125651;23;20005;-66
2023/04/30 02:35:48;;;;;;;10.02;6.57;;;15.50;93.60;;;;;;6126031;23;20021;-67
2023/04/30 02:38:13;;;;;;;8.63;6.05;;;15.40;93.90;;;;;;6125954;23;20029;-67
2023/04/30 02:40:41;;;;;;;12.65;6.72;;;15.40;93.80;;;;;;6125740;23;20013;-67
2023/04/30 02:43:07;;;;;;;9.38;5.78;;;15.40;93.70;;;;;;6125978;23;20006;-67
2023/04/30 02:45:33;;;;;;;9.38;6.10;;;15.40;93.50;;;;;;6125943;23;20455;-67
2023/04/30 02:47:58;;;;;;;11.13;7.07;;;15.40;93.50;;;;;;6125636;23;20026;-67
2023/04/30 02:50:24;;;;;;;10.13;6.10;;;15.40;93.60;;;;;;6125728;23;20022;-66
2023/04/30 02:52:50;;;;;;;8.38;6.63;;;15.30;93.60;;;;;;6125859;23;19998;-67
2023/04/30 02:55:16;;;;;;;10.40;6.60;;;15.30;93.70;;;;;;6125897;23;20002;-67
2023/04/30 02:57:42;;;;;;;8.02;6.68;;;15.30;93.60;;;;;;6125800;23;20002;-67
2023/04/30 03:00:08;;;;;;;8.68;6.35;;;15.20;93.70;;;;;;6126021;23;20009;-68
2023/04/30 03:02:34;;;;;;;10.27;6.75;;;15.20;93.90;;;;;;6125716;23;20013;-67
2023/04/30 03:04:59;;;;;;;12.02;7.63;;;15.20;93.90;;;;;;6125697;23;20010;-67
2023/04/30 03:07:25;;;;;;;11.70;7.10;;;15.10;93.90;;;;;;6125694;23;19998;-67
2023/04/30 03:09:51;;;;;;;11.35;6.57;;;15.10;94.00;;;;;;6126041;23;20068;-67
2023/04/30 03:12:17;;;;;;;13.13;6.85;;;15.10;94.00;;;;;;6126118;23;20333;-67
2023/04/30 03:14:42;;;;;;;10.63;7.15;;;15.10;93.90;;;;;;6125908;23;20449;-67
2023/04/30 03:17:08;;;;;;;9.52;6.68;;;15.00;94.00;;;;;;6125698;23;20029;-67
2023/04/30 03:19:34;;;;;;;10.32;6.72;;;15.00;94.00;;;;;;6125814;23;20333;-67
2023/04/30 03:21:59;;;;;;;12.65;6.40;;;15.00;94.00;;;;;;6125630;23;20447;-67
2023/04/30 03:24:25;;;;;;;8.82;6.20;;;15.00;93.80;;;;;;6125658;23;20010;-69
2023/04/30 03:26:51;;;;;;;9.07;6.28;;;14.90;93.80;;;;;;6125630;23;20005;-67
2023/04/30 03:29:16;;;;;;;9.95;6.82;;;15.00;93.80;;;;;;6125888;23;20084;-67
2023/04/30 03:31:42;;;;;;;9.05;6.22;;;14.90;93.90;;;;;;6125466;23;20006;-67
2023/04/30 03:34:08;;;;;;;10.82;6.63;;;14.90;93.90;;;;;;6125779;23;20037;-67
2023/04/30 03:36:34;;;;;;;11.05;6.18;;;14.90;94.00;;;;;;6125807;23;19998;-66
2023/04/30 03:39:01;;;;;;;9.80;5.82;;;14.90;94.00;;;;;;6125709;23;20010;-66
2023/04/30 03:41:26;;;;;;;10.65;5.70;;;14.80;94.00;;;;;;6125759;23;20082;-67
2023/04/30 03:43:53;;;;;;;10.05;6.07;;;14.80;94.00;;;;;;6125452;23;20393;-67
2023/04/30 03:46:19;;;;;;;10.43;6.35;;;14.80;93.90;;;;;;6127274;23;20010;-67
2023/04/30 03:48:44;;;;;;;10.15;6.53;;;14.80;93.90;;;;;;6127577;23;20324;-67
2023/04/30 03:51:10;;;;;;;10.82;6.28;;;14.70;93.90;;;;;;6127405;23;20024;-67
2023/04/30 03:53:36;;;;;;;14.05;6.13;;;14.70;93.90;;;;;;6127377;23;20033;-67
2023/04/30 03:56:02;;;;;;;12.52;5.97;;;14.70;93.80;;;;;;6125629;23;20006;-67
2023/04/30 03:58:29;;;;;;;9.55;5.53;;;14.60;93.70;;;;;;6127278;23;20002;-66
2023/04/30 04:00:55;;;;;;;10.65;6.13;;;14.60;93.80;;;;;;6127441;23;20435;-66
2023/04/30 04:03:21;;;;;;;10.60;6.32;;;14.60;93.90;;;;;;6127572;23;20077;-67
2023/04/30 04:05:47;;;;;;;10.25;6.13;;;14.50;94.00;;;;;;6127420;23;20455;-67
2023/04/30 04:08:13;;;;;;;10.63;6.13;;;14.50;94.10;;;;;;6127098;23;19998;-67
2023/04/30 04:10:39;;;;;;;8.38;5.53;;;14.50;94.10;;;;;;6127241;23;20421;-67
2023/04/30 04:13:06;;;;;;;13.45;6.75;;;14.50;94.10;;;;;;6127166;23;19998;-67
2023/04/30 04:15:32;;;;;;;13.13;6.30;;;14.50;94.20;;;;;;6127270;23;20061;-67
2023/04/30 04:17:58;;;;;;;8.75;5.85;;;14.50;94.10;;;;;;6127382;23;20602;-67
2023/04/30 04:20:24;;;;;;;7.72;5.60;;;14.40;94.20;;;;;;6126956;23;20140;-67
2023/04/30 04:22:50;;;;;;;8.00;5.30;;;14.40;94.20;;;;;;6127071;23;20002;-67
2023/04/30 04:25:16;;;;;;;8.98;6.10;;;14.40;94.20;;;;;;6127396;23;20108;-67
2023/04/30 04:27:43;;;;;;;11.85;5.95;;;14.30;94.20;;;;;;6127567;23;20349;-67
2023/04/30 04:30:09;;;;;;;11.07;6.30;;;14.30;94.40;;;;;;6127466;23;20002;-68
2023/04/30 04:32:40;;;;;;;10.48;6.00;;;14.30;94.50;;;;;;6127071;23;20081;-67
2023/04/30 04:35:07;;;;;;;8.60;6.13;;;14.30;94.60;;;;;;6127070;23;20017;-67
2023/04/30 04:37:33;;;;;;;10.20;5.80;;;14.30;94.70;;;;;;6127040;23;20029;-66
2023/04/30 04:39:59;;;;;;;9.52;6.55;;;14.30;94.70;;;;;;6127405;23;20017;-67
2023/04/30 04:42:25;;;;;;;10.90;6.40;;;14.30;94.90;;;;;;6126776;23;20328;-67
2023/04/30 04:44:51;;;;;;;12.90;6.28;;;14.30;94.90;;;;;;6126834;23;20008;-67
2023/04/30 04:47:21;;;;;;;10.13;5.90;;;14.30;94.90;;;;;;6127044;23;20002;-67
2023/04/30 04:49:47;;;;;;;13.07;6.50;;;14.30;95.00;;;;;;6101254;23;20010;-67
2023/04/30 04:52:13;;;;;;;12.25;7.00;;;14.30;95.10;;;;;;6126731;23;20018;-66
2023/04/30 04:54:38;;;;;;;11.25;6.55;;;14.30;95.20;;;;;;6127050;23;20006;-67
2023/04/30 04:57:04;;;;;;;11.07;6.82;;;14.40;95.30;;;;;;6126697;23;20024;-67
2023/04/30 04:59:30;;;;;;;11.68;6.80;;;14.40;95.60;;;;;;6126877;23;20010;-67
2023/04/30 05:01:56;;;;;;;11.38;7.00;;;14.40;95.60;;;;;;6126903;23;20080;-67
2023/04/30 05:04:21;;;;;;;9.10;6.97;;;14.50;95.60;;;;;;6126734;23;20029;-68
2023/04/30 05:06:47;;;;;;;12.20;6.50;;;14.60;95.60;;;;;;6126565;23;20006;-66
2023/04/30 05:09:13;;;;;;;10.23;7.40;;;14.60;95.50;;;;;;6126951;23;20017;-67
2023/04/30 05:11:40;;;;;;;10.23;7.00;;;14.60;95.40;;;;;;6127037;23;20333;-67
2023/04/30 05:14:06;;;;;;;11.13;6.80;;;14.70;95.40;;;;;;6126926;23;20005;-67
2023/04/30 05:16:32;;;;;;;15.00;6.25;;;14.70;95.50;;;;;;6126770;23;20006;-67
2023/04/30 05:18:58;;;;;;;10.20;6.25;;;14.80;95.40;;;;;;6126323;23;20002;-67
2023/04/30 05:21:28;;;;;;;9.23;6.07;;;14.80;95.40;;;;;;6126691;23;20010;-67
2023/04/30 05:23:53;;;;;;;11.10;6.05;;;14.80;95.30;;;;;;6126811;23;20002;-68
2023/04/30 05:26:19;;;;;;;10.68;5.78;;;14.80;95.30;;;;;;6126545;23;20002;-66
2023/04/30 05:28:45;;;;;;;10.02;6.03;;;14.80;95.30;;;;;;6126857;23;20068;-67
2023/04/30 05:31:11;;;;;;;12.02;6.45;;;14.90;95.20;;;;;;6126570;23;20006;-67
2023/04/30 05:33:36;;;;;;;9.45;5.80;;;14.90;95.10;;;;;;6126354;23;19998;-67
2023/04/30 05:36:02;;;;;;;9.70;6.30;;;14.90;95.10;;;;;;6126615;23;20081;-67
2023/04/30 05:38:28;;;;;;;9.10;5.82;;;15.00;95.10;;;;;;6126587;23;20005;-67
2023/04/30 05:40:54;;;;;;;11.13;5.50;;;15.00;95.20;;;;;;6126385;23;20033;-67
2023/04/30 05:43:20;;;;;;;11.45;5.72;;;15.00;95.40;;;;;;6126634;23;20002;-67
2023/04/30 05:45:45;;;;;;;7.97;5.38;;;15.10;95.60;;;;;;6126203;23;20006;-66
2023/04/30 05:48:11;;;;;;;9.88;5.70;;;15.10;95.50;;;;;;6126618;23;20002;-67
2023/04/30 05:50:37;;;;;;;10.18;5.35;;;15.20;95.40;;;;;;6126036;23;20014;-68
2023/04/30 05:53:03;;;;;;;9.35;5.38;;;15.20;95.30;;;;;;6126577;23;20048;-67
2023/04/30 05:55:28;;;;;;;11.65;4.93;;;15.40;95.00;;;;;;6126388;23;20006;-67
2023/04/30 05:57:55;;;;;;;9.98;4.90;;;15.40;94.90;;;;;;6126427;23;20048;-67
2023/04/30 06:00:21;;;;;;;8.02;4.50;;;15.50;94.80;;;;;;6125925;23;20009;-66
2023/04/30 06:02:47;;;;;;;7.88;4.75;;;15.60;94.70;;;;;;6126376;23;20006;-67
2023/04/30 06:05:13;;;;;;;10.82;5.03;;;15.70;94.60;;;;;;6126186;23;20012;-67
2023/04/30 06:07:38;;;;;;;6.53;4.68;;;15.70;94.40;;;;;;6126198;23;20002;-67
2023/04/30 06:10:05;;;;;;;14.80;4.90;;;15.80;94.60;;;;;;6126280;23;20005;-67
2023/04/30 06:12:31;;;;;;;6.68;4.00;;;15.80;94.30;;;;;;6126191;23;20005;-67
2023/04/30 06:14:57;;;;;;;8.15;4.90;;;15.90;94.20;;;;;;6125963;23;20006;-67
2023/04/30 06:17:23;;;;;;;11.00;4.55;;;16.00;94.40;;;;;;6125691;23;20002;-67
2023/04/30 06:19:48;;;;;;;8.52;4.10;;;16.10;94.20;;;;;;6125794;23;20480;-66
2023/04/30 06:22:14;;;;;;;6.32;3.65;;;16.10;94.10;;;;;;6126302;23;20002;-67
2023/04/30 06:24:40;;;;;;;6.03;3.45;;;16.30;94.10;;;;;;6126097;23;20009;-66
2023/04/30 06:27:05;;;;;;;7.00;3.47;;;16.30;93.70;;;;;;6125859;23;20005;-67
2023/04/30 06:29:31;;;;;;;7.82;3.85;;;16.40;93.40;;;;;;6125761;23;20073;-67
2023/04/30 06:31:57;;;;;;;5.95;3.22;;;16.50;93.20;;;;;;6125912;23;20002;-67
2023/04/30 06:34:23;;;;;;;5.90;3.28;;;16.60;93.00;;;;;;6125942;23;20001;-67
2023/04/30 06:36:48;;;;;;;7.85;3.00;;;16.70;92.80;;;;;;6125737;23;20025;-67
2023/04/30 06:39:15;;;;;;;7.55;3.22;;;16.80;92.60;;;;;;6126082;23;20014;-67
2023/04/30 06:41:41;;;;;;;6.35;2.83;;;16.80;92.30;;;;;;6126095;23;20006;-67
2023/04/30 06:44:08;;;;;;;6.05;3.25;;;17.00;92.20;;;;;;6125640;23;20073;-67
2023/04/30 06:46:33;;;;;;;7.95;2.53;;;17.00;92.10;;;;;;6096616;23;20017;-67
2023/04/30 06:48:59;;;;;;;4.18;2.10;;;17.10;92.10;;;;;;6122662;23;20002;-67
2023/04/30 06:51:25;;;;;;;5.70;1.70;;;17.20;91.70;;;;;;6123512;23;20403;-66
2023/04/30 06:53:51;;;;;;;4.45;2.00;;;17.40;91.70;;;;;;6125372;23;20073;-67
2023/04/30 06:56:17;;;;;;;4.18;1.75;;;17.50;91.10;;;;;;6123743;23;20022;-67
2023/04/30 06:58:43;;;;;;;4.13;1.48;;;17.60;90.80;;;;;;6122411;23;20010;-68
2023/04/30 07:01:09;;;;;;;3.50;1.83;;;17.70;90.50;;;;;;6123362;23;20441;-67
2023/04/30 07:03:35;;;;;;;4.88;1.90;;;17.80;90.00;;;;;;6125653;23;20005;-67
2023/04/30 07:06:01;;;;;;;3.85;2.13;;;17.90;89.40;;;;;;6125578;23;20436;-67
2023/04/30 07:08:27;;;;;;;4.65;2.17;;;17.90;89.20;;;;;;6125415;23;20037;-67
2023/04/30 07:10:52;;;;;;;5.63;1.90;;;17.90;89.40;;;;;;6125387;23;20073;-68
2023/04/30 07:13:18;;;;;;;5.75;2.10;;;17.90;89.60;;;;;;6125532;23;20006;-67
2023/04/30 07:15:44;;;;;;;5.93;2.00;;;18.10;89.30;;;;;;6125962;23;20089;-67
2023/04/30 07:18:10;;;;;;;5.97;2.40;;;18.10;89.30;;;;;;6124958;23;20029;-67
2023/04/30 07:20:36;;;;;;;4.20;1.88;;;18.20;89.90;;;;;;6125979;23;20009;-68
2023/04/30 07:23:01;;;;;;;4.30;1.55;;;18.30;90.20;;;;;;6129106;23;20025;-67
2023/04/30 07:25:27;;;;;;;4.88;2.28;;;18.40;90.20;;;;;;6128348;23;20057;-68
2023/04/30 07:27:54;;;;;;;4.68;1.65;;;18.40;89.40;;;;;;6128180;23;20392;-68
2023/04/30 07:30:21;;;;;;;8.95;2.00;;;18.50;87.60;;;;;;6128393;23;20033;-67
2023/04/30 07:32:47;;;;;;;3.08;1.38;;;18.60;86.60;;;;;;6128245;23;20008;-72
2023/04/30 07:35:13;;;;;;;5.70;1.45;;;18.70;84.60;;;;;;6128450;23;20448;-67
2023/04/30 07:37:40;;;;;;;10.68;1.20;;;18.70;85.40;;;;;;6128434;23;20048;-68
2023/04/30 07:40:11;;;;;;;4.93;1.00;;;18.80;83.60;;;;;;6127973;23;20100;-67
2023/04/30 07:42:41;;;;;;;8.27;1.40;;;18.90;81.90;;;;;;6128613;23;20184;-67
2023/04/30 07:45:07;;;;;;;9.75;1.45;;;18.90;81.50;;;;;;6128108;23;20229;-66
2023/04/30 07:47:33;;;;;;;8.52;1.23;;;19.00;80.90;;;;;;6127736;23;20069;-66
2023/04/30 07:49:59;;;;;;;3.70;1.20;;;19.00;80.90;;;;;;6127920;23;20041;-65
2023/04/30 07:52:24;;;;;;;4.22;0.98;;;19.00;81.30;;;;;;6127682;23;20025;-67
2023/04/30 07:54:50;;;;;;;5.88;1.33;;;19.00;80.50;;;;;;6127920;23;20008;-67
2023/04/30 07:57:16;;;;;;;3.70;1.70;;;19.10;79.80;;;;;;6127530;23;19998;-66
2023/04/30 07:59:42;;;;;;;3.20;1.40;;;19.10;80.50;;;;;;6128810;23;20025;-66
2023/04/30 08:02:08;;;;;;;4.15;1.33;;;19.20;80.20;;;;;;6128774;23;20122;-66
2023/04/30 08:04:34;;;;;;;3.20;1.20;;;19.20;80.30;;;;;;6126010;23;20450;-66
2023/04/30 08:07:03;;;;;;;4.53;1.48;;;19.30;79.10;;;;;;6128190;23;20009;-66
2023/04/30 08:09:29;;;;;;;4.85;1.35;;;19.40;79.40;;;;;;6128572;23;20013;-71
2023/04/30 08:11:55;;;;;;;4.50;1.50;;;19.40;77.80;;;;;;6128595;23;20073;-67
2023/04/30 08:14:21;;;;;;;4.90;1.20;;;19.50;76.30;;;;;;6128210;23;20433;-67
2023/04/30 08:16:47;;;;;;;1.88;1.05;;;19.50;75.70;;;;;;6128215;23;20030;-69
2023/04/30 08:19:12;;;;;;;1.08;0.98;;;19.50;75.00;;;;;;6128140;23;20014;-69
2023/04/30 08:21:38;;;;;;;5.57;1.67;;;19.50;73.90;;;;;;6128298;23;20009;-65
2023/04/30 08:24:04;;;;;;;6.63;1.42;;;19.50;74.40;;;;;;6128500;23;20005;-69
2023/04/30 08:26:30;;;;;;;2.08;1.17;;;19.50;74.70;;;;;;6128375;23;20073;-72
2023/04/30 08:28:55;;;;;;;1.42;0.90;;;19.60;74.90;;;;;;6127930;23;20006;-65
2023/04/30 08:31:21;;;;;;;6.10;1.13;;;19.70;73.90;;;;;;6128361;23;20078;-65
2023/04/30 08:33:47;;;;;;;2.90;0.90;;;19.80;73.00;;;;;;6124731;23;20013;-65
2023/04/30 08:36:13;;;;;;;3.67;1.13;;;19.80;70.90;;;;;;6124060;23;20128;-64
2023/04/30 08:38:38;;;;;;;2.60;1.00;;;19.80;70.60;;;;;;6125595;23;20124;-65
2023/04/30 08:41:10;;;;;;;2.35;1.05;;;19.80;71.00;;;;;;6126732;23;20006;-64
2023/04/30 08:43:36;;;;;;;2.35;1.33;;;19.80;71.20;;;;;;6125622;23;20026;-64
2023/04/30 08:46:03;;;;;;;3.72;0.90;;;19.80;72.20;;;;;;6124985;23;20451;-64
2023/04/30 08:48:30;;;;;;;3.17;1.40;;;19.90;71.10;;;;;;6126781;23;20325;-65
2023/04/30 08:50:58;;;;;;;5.95;1.10;;;19.90;71.50;;;;;;6129450;23;20153;-65
2023/04/30 08:53:24;;;;;;;3.33;0.90;;;19.90;69.20;;;;;;6126409;23;20034;-64
2023/04/30 08:55:50;;;;;;;1.90;1.00;;;19.90;68.40;;;;;;6126287;23;20041;-65
2023/04/30 08:58:15;;;;;;;1.63;1.08;;;19.90;68.60;;;;;;6124620;23;20013;-64
2023/04/30 09:00:41;;;;;;;2.47;1.13;;;19.90;69.00;;;;;;6123527;23;20013;-65
2023/04/30 09:03:07;;;;;;;2.35;1.10;;;19.90;69.80;;;;;;6123217;23;20425;-64
2023/04/30 09:05:33;;;;;;;1.83;1.00;;;19.90;69.50;;;;;;6125711;23;20006;-65
2023/04/30 09:07:59;;;;;;;4.95;0.90;;;20.00;68.50;;;;;;6126483;23;20024;-65
2023/04/30 09:10:25;;;;;;;1.13;0.75;;;20.10;67.80;;;;;;6126466;23;20085;-65
2023/04/30 09:13:10;;;;;;;6.68;1.05;;;20.20;66.90;;;;;;6126036;23;20044;-64
2023/04/30 09:15:40;;;;;;;1.92;1.08;;;20.20;67.30;;;;;;6126443;23;20026;-65
2023/04/30 09:18:10;;;;;;;2.58;0.95;;;20.20;66.90;;;;;;6126901;23;19998;-65
2023/04/30 09:20:36;;;;;;;4.32;0.88;;;20.20;67.00;;;;;;6126429;23;20010;-65
2023/04/30 09:23:07;;;;;;;1.95;0.95;;;20.20;67.00;;;;;;6126751;23;20376;-65
2023/04/30 09:25:40;;;;;;;1.63;1.10;;;20.10;66.40;;;;;;6127035;23;20010;-65
2023/04/30 09:28:15;;;;;;;2.45;1.20;;;20.10;66.40;;;;;;6126546;23;20065;-65
2023/04/30 09:30:42;;;;;;;1.85;0.90;;;20.10;66.60;;;;;;6127026;23;20053;-65
2023/04/30 09:33:08;;;;;;;2.55;1.10;;;20.10;65.80;;;;;;6126901;23;20037;-65
2023/04/30 09:35:35;;;;;;;0.82;0.75;;;20.00;66.10;;;;;;6126557;23;20006;-66
2023/04/30 09:38:02;;;;;;;2.35;0.98;;;20.00;66.10;;;;;;6126108;23;20390;-65
2023/04/30 09:40:36;;;;;;;2.28;0.95;;;19.90;66.60;;;;;;6126158;23;20025;-65
2023/04/30 09:43:02;;;;;;;1.40;0.90;;;19.90;66.70;;;;;;6126274;23;20001;-65
2023/04/30 09:45:51;;;;;;;1.58;1.10;;;19.90;65.10;;;;;;6126182;23;20441;-66
2023/04/30 09:48:27;;;;;;;3.25;0.82;;;19.90;65.80;;;;;;6126516;23;20149;-65
2023/04/30 09:50:53;;;;;;;1.60;1.05;;;19.80;65.60;;;;;;6126465;23;20021;-66
2023/04/30 09:53:19;;;;;;;5.25;0.80;;;19.80;66.10;;;;;;6126181;23;20480;-65
2023/04/30 09:55:47;;;;;;;1.67;1.02;;;19.80;65.80;;;;;;6126149;23;19998;-65
2023/04/30 09:58:15;;;;;;;1.40;0.80;;;19.80;65.30;;;;;;6126542;23;20002;-66
2023/04/30 10:00:42;;;;;;;1.42;0.90;;;19.70;64.30;;;;;;6126297;23;20436;-65
2023/04/30 10:03:12;;;;;;;6.03;0.90;;;19.70;65.10;;;;;;6126230;23;20002;-67
2023/04/30 10:05:45;;;;;;;2.05;0.90;;;19.70;64.50;;;;;;6125892;23;20002;-68
2023/04/30 10:08:26;;;;;;;1.00;0.90;;;19.70;66.00;;;;;;6126699;23;20077;-68
2023/04/30 10:11:01;;;;;;;9.52;1.48;;;19.70;65.80;;;;;;6126345;23;20002;-67
2023/04/30 10:13:54;;;;;;;0.95;0.70;;;19.60;66.50;;;;;;6126441;23;20722;-67
2023/04/30 10:16:30;;;;;;;3.58;1.05;;;19.60;66.50;;;;;;6126396;23;20013;-67
2023/04/30 10:18:58;;;;;;;2.05;0.90;;;19.70;64.50;;;;;;6126426;23;20440;-67
2023/04/30 10:21:26;;;;;;;1.38;0.88;;;19.70;65.00;;;;;;6126085;23;20005;-67
2023/04/30 10:23:53;;;;;;;2.17;0.90;;;19.60;65.30;;;;;;6126347;23;20044;-67
2023/04/30 10:26:19;;;;;;;1.48;0.75;;;19.60;65.40;;;;;;6126148;23;20105;-67
2023/04/30 10:28:47;;;;;;;0.93;0.77;;;19.60;64.80;;;;;;6126133;23;20053;-68
2023/04/30 10:31:14;;;;;;;1.65;1.00;;;19.60;66.10;;;;;;6126077;23;19998;-67
2023/04/30 10:33:58;;;;;;;2.20;1.08;;;19.60;65.30;;;;;;6126442;23;20006;-66
2023/04/30 10:36:36;;;;;;;4.30;1.00;;;19.60;66.00;;;;;;6126053;23;20012;-66
2023/04/30 10:39:02;;;;;;;2.08;1.08;;;19.60;66.20;;;;;;6125952;23;20481;-66
2023/04/30 10:41:29;;;;;;;1.90;1.20;;;19.60;66.40;;;;;;6126276;23;20037;-66
2023/04/30 10:44:01;;;;;;;1.23;0.85;;;19.60;66.30;;;;;;6125834;23;20049;-66
2023/04/30 10:46:27;;;;;;;1.40;0.93;;;19.60;66.40;;;;;;6126172;23;20012;-66
2023/04/30 10:48:54;;;;;;;1.20;0.90;;;19.70;65.60;;;;;;6122646;23;20106;-66
2023/04/30 10:51:20;;;;;;;0.80;0.70;;;19.70;65.70;;;;;;6122216;23;20026;-66
2023/04/30 10:53:53;;;;;;;1.42;0.90;;;19.80;65.30;;;;;;6122828;23;20136;-66
2023/04/30 10:56:31;;;;;;;0.90;0.70;;;19.80;66.40;;;;;;6125475;23;20002;-66
2023/04/30 10:59:01;;;;;;;0.75;0.70;;;19.80;66.80;;;;;;6125690;23;20060;-67
2023/04/30 11:01:28;;;;;;;2.25;0.80;;;19.90;67.20;;;;;;6125534;23;20010;-66
2023/04/30 11:04:08;;;;;;;1.63;1.00;;;19.90;65.30;;;;;;6125479;23;20002;-66
2023/04/30 11:07:02;;;;;;;1.00;0.63;;;20.00;65.60;;;;;;6121752;23;20010;-66
2023/04/30 11:09:41;;;;;;;1.48;0.80;;;20.10;62.50;;;;;;6122699;23;20012;-67
2023/04/30 11:12:27;;;;;;;0.80;0.70;;;20.20;63.90;;;;;;6125517;23;20455;-66
2023/04/30 11:15:06;;;;;;;0.90;0.80;;;20.40;63.20;;;;;;6124999;23;20002;-67
2023/04/30 11:17:33;;;;;;;0.85;0.70;;;20.60;63.50;;;;;;6125563;23;20006;-67
2023/04/30 11:20:00;;;;;;;0.85;0.80;;;20.70;61.70;;;;;;6125403;23;20014;-67
2023/04/30 11:22:28;;;;;;;1.40;1.00;;;20.80;61.10;;;;;;6124774;23;20012;-68
2023/04/30 11:25:10;;;;;;;3.03;0.90;;;20.90;61.50;;;;;;6122057;23;20021;-66
2023/04/30 11:27:39;;;;;;;2.33;0.90;;;21.00;60.20;;;;;;6122215;23;20061;-67
2023/04/30 11:30:14;;;;;;;2.35;0.80;;;21.10;59.90;;;;;;6124068;23;20021;-67
2023/04/30 11:32:40;;;;;;;1.10;0.70;;;21.10;58.90;;;;;;6125307;23;20034;-67
2023/04/30 11:35:07;;;;;;;1.02;0.80;;;21.20;59.20;;;;;;6125276;23;20025;-67
2023/04/30 11:37:39;;;;;;;0.88;0.70;;;21.30;59.50;;;;;;6125360;23;20017;-67
2023/04/30 11:40:07;;;;;;;1.70;0.73;;;21.30;57.80;;;;;;6125211;23;20421;-67
2023/04/30 11:42:33;;;;;;;1.40;0.85;;;21.40;58.30;;;;;;6125379;23;20013;-67
2023/04/30 11:45:10;;;;;;;0.70;0.60;;;21.40;57.20;;;;;;6125140;23;20006;-67
2023/04/30 11:47:40;;;;;;;1.60;0.70;;;21.40;55.90;;;;;;6125340;23;20076;-67
2023/04/30 11:50:08;;;;;;;0.85;0.65;;;21.40;57.00;;;;;;6124971;23;20057;-68
2023/04/30 11:52:34;;;;;;;0.80;0.60;;;21.40;56.60;;;;;;6124801;23;20518;-66
2023/04/30 11:55:01;;;;;;;1.10;0.60;;;21.40;57.00;;;;;;6125421;23;19998;-68
2023/04/30 11:57:34;;;;;;;2.50;0.82;;;21.50;57.30;;;;;;6125249;23;20016;-67
2023/04/30 12:00:14;;;;;;;0.85;0.70;;;21.60;56.20;;;;;;6124684;23;20083;-66
2023/04/30 12:02:44;;;;;;;2.00;0.80;;;21.70;56.50;;;;;;6125129;23;20483;-67
2023/04/30 12:05:17;;;;;;;1.35;0.63;;;21.80;55.50;;;;;;6125358;23;20083;-67
2023/04/30 12:07:47;;;;;;;1.20;0.77;;;21.80;54.80;;;;;;6127193;23;20014;-66
2023/04/30 12:10:13;;;;;;;0.88;0.73;;;21.80;53.60;;;;;;6127401;23;20157;-67
2023/04/30 12:12:41;;;;;;;1.77;0.80;;;21.80;53.90;;;;;;6126867;23;19998;-67
2023/04/30 12:15:14;;;;;;;1.17;0.60;;;21.80;55.20;;;;;;6126548;23;20087;-67
2023/04/30 12:17:41;;;;;;;1.83;0.70;;;21.80;54.90;;;;;;6127428;23;20010;-67
2023/04/30 12:20:08;;;;;;;0.93;0.80;;;21.80;55.20;;;;;;6126912;23;20041;-67
2023/04/30 12:22:34;;;;;;;4.55;0.88;;;21.80;54.80;;;;;;6127150;23;20112;-67
2023/04/30 12:25:12;;;;;;;2.17;0.80;;;21.80;55.10;;;;;;6127359;23;20435;-67
2023/04/30 12:27:41;;;;;;;1.60;0.90;;;21.80;54.90;;;;;;6126950;23;20010;-66
2023/04/30 12:30:08;;;;;;;2.35;0.93;;;21.90;55.20;;;;;;6126771;23;20006;-66
2023/04/30 12:32:38;;;;;;;1.50;0.95;;;21.90;54.80;;;;;;6126592;23;20306;-67
2023/04/30 12:35:05;;;;;;;0.80;0.80;;;21.90;55.20;;;;;;6126581;23;20017;-68
2023/04/30 12:37:31;;;;;;;2.30;0.77;;;22.00;55.60;;;;;;6126831;23;20002;-67
2023/04/30 12:39:56;;;;;;;1.50;0.90;;;22.00;56.20;;;;;;6127308;23;20127;-66
2023/04/30 12:42:23;;;;;;;1.70;0.85;;;21.90;56.10;;;;;;6126774;23;20434;-66
2023/04/30 12:44:49;;;;;;;1.00;0.80;;;21.90;56.90;;;;;;6126672;23;20006;-66
2023/04/30 12:47:15;;;;;;;0.55;0.55;;;21.90;58.10;;;;;;6126698;23;20002;-67
2023/04/30 12:49:43;;;;;;;1.60;0.70;;;21.90;58.30;;;;;;6127057;23;20081;-67